sensor_id;sensor_type;location;lat;lon;timestamp;pressure;altitude;pressure_sealevel;temperature;humidity
61697;BME280;47610;52.252;20.922;2022-12-16T00:00:39;100068.88;;;-3.20;100.00
61697;BME280;47610;52.252;20.922;2022-12-16T00:08:13;100054.25;;;-3.29;100.00
61697;BME280;47610;52.252;20.922;2022-12-16T00:13:37;100048.44;;;-3.37;100.00
61697;BME280;47610;52.252;20.922;2022-12-16T00:19:00;100053.67;;;-3.43;100.00
61697;BME280;47610;52.252;20.922;2022-12-16T00:24:22;100068.69;;;-3.45;100.00
61697;BME280;47610;52.252;20.922;2022-12-16T00:29:46;100065.03;;;-3.46;100.00
61697;BME280;47610;52.252;20.922;2022-12-16T00:35:09;100057.67;;;-3.53;100.00
61697;BME280;47610;52.252;20.922;2022-12-16T00:40:31;100061.40;;;-3.62;100.00
61697;BME280;47610;52.252;20.922;2022-12-16T00:45:54;100066.48;;;-3.69;100.00
61697;BME280;47610;52.252;20.922;2022-12-16T00:51:16;100068.00;;;-3.76;100.00
61697;BME280;47610;52.252;20.922;2022-12-16T00:56:39;100069.39;;;-3.80;100.00
61697;BME280;47610;52.252;20.922;2022-12-16T01:02:02;100063.83;;;-3.83;100.00
61697;BME280;47610;52.252;20.922;2022-12-16T01:07:25;100053.99;;;-3.84;100.00
61697;BME280;47610;52.252;20.922;2022-12-16T01:12:48;100058.54;;;-3.92;100.00
61697;BME280;47610;52.252;20.922;2022-12-16T01:18:12;100070.71;;;-3.98;100.00
61697;BME280;47610;52.252;20.922;2022-12-16T01:23:37;100075.17;;;-3.99;100.00
61697;BME280;47610;52.252;20.922;2022-12-16T01:29:00;100068.56;;;-4.05;100.00
61697;BME280;47610;52.252;20.922;2022-12-16T01:34:23;100074.94;;;-4.09;100.00
61697;BME280;47610;52.252;20.922;2022-12-16T01:39:48;100061.74;;;-4.12;100.00
61697;BME280;47610;52.252;20.922;2022-12-16T01:45:32;100045.11;;;-4.19;100.00
61697;BME280;47610;52.252;20.922;2022-12-16T01:51:00;100033.30;;;-4.29;100.00
61697;BME280;47610;52.252;20.922;2022-12-16T01:56:29;100011.25;;;-4.36;100.00
61697;BME280;47610;52.252;20.922;2022-12-16T02:01:55;100022.98;;;-4.37;100.00
61697;BME280;47610;52.252;20.922;2022-12-16T02:07:18;100013.92;;;-4.33;100.00
61697;BME280;47610;52.252;20.922;2022-12-16T02:12:46;100015.63;;;-4.37;100.00
61697;BME280;47610;52.252;20.922;2022-12-16T02:18:16;100013.26;;;-4.39;100.00
61697;BME280;47610;52.252;20.922;2022-12-16T02:29:45;100015.73;;;-4.41;100.00
61697;BME280;47610;52.252;20.922;2022-12-16T02:35:19;100009.80;;;-4.43;100.00
61697;BME280;47610;52.252;20.922;2022-12-16T02:40:52;99998.32;;;-4.49;100.00
61697;BME280;47610;52.252;20.922;2022-12-16T02:46:18;99999.04;;;-4.53;100.00
61697;BME280;47610;52.252;20.922;2022-12-16T02:51:42;99996.50;;;-4.58;100.00
61697;BME280;47610;52.252;20.922;2022-12-16T02:57:09;99989.85;;;-4.61;100.00
61697;BME280;47610;52.252;20.922;2022-12-16T03:02:44;99977.16;;;-4.64;100.00
61697;BME280;47610;52.252;20.922;2022-12-16T03:08:11;99968.88;;;-4.65;100.00
61697;BME280;47610;52.252;20.922;2022-12-16T03:13:42;99953.54;;;-4.70;100.00
61697;BME280;47610;52.252;20.922;2022-12-16T03:19:08;99961.98;;;-4.70;100.00
61697;BME280;47610;52.252;20.922;2022-12-16T03:24:34;99959.34;;;-4.69;100.00
61697;BME280;47610;52.252;20.922;2022-12-16T03:30:01;99950.33;;;-4.65;100.00
61697;BME280;47610;52.252;20.922;2022-12-16T03:35:32;99959.96;;;-4.68;100.00
61697;BME280;47610;52.252;20.922;2022-12-16T03:40:59;99948.91;;;-4.66;100.00
61697;BME280;47610;52.252;20.922;2022-12-16T03:46:24;99931.45;;;-4.62;100.00
61697;BME280;47610;52.252;20.922;2022-12-16T03:51:48;99930.79;;;-4.58;100.00
61697;BME280;47610;52.252;20.922;2022-12-16T03:57:11;99911.64;;;-4.60;100.00
61697;BME280;47610;52.252;20.922;2022-12-16T04:02:33;99905.30;;;-4.68;100.00
61697;BME280;47610;52.252;20.922;2022-12-16T04:07:55;99911.79;;;-4.72;100.00
61697;BME280;47610;52.252;20.922;2022-12-16T04:13:19;99910.03;;;-4.75;100.00
61697;BME280;47610;52.252;20.922;2022-12-16T04:18:41;99908.05;;;-4.80;100.00
61697;BME280;47610;52.252;20.922;2022-12-16T04:24:09;99911.13;;;-4.85;100.00
61697;BME280;47610;52.252;20.922;2022-12-16T04:29:34;99912.27;;;-4.82;100.00
61697;BME280;47610;52.252;20.922;2022-12-16T04:34:57;99918.21;;;-4.79;100.00
61697;BME280;47610;52.252;20.922;2022-12-16T04:50:57;99899.14;;;-4.82;100.00
61697;BME280;47610;52.252;20.922;2022-12-16T04:56:19;99901.94;;;-4.80;100.00
61697;BME280;47610;52.252;20.922;2022-12-16T05:01:41;99900.78;;;-4.79;100.00
61697;BME280;47610;52.252;20.922;2022-12-16T05:07:04;99896.95;;;-4.83;100.00
61697;BME280;47610;52.252;20.922;2022-12-16T05:12:26;99898.13;;;-4.86;100.00
61697;BME280;47610;52.252;20.922;2022-12-16T05:17:50;99886.23;;;-4.91;100.00
61697;BME280;47610;52.252;20.922;2022-12-16T05:23:15;99884.96;;;-4.96;100.00
61697;BME280;47610;52.252;20.922;2022-12-16T05:28:35;99885.82;;;-5.00;100.00
61697;BME280;47610;52.252;20.922;2022-12-16T05:33:58;99887.79;;;-5.05;100.00
61697;BME280;47610;52.252;20.922;2022-12-16T05:39:21;99877.97;;;-5.09;100.00
61697;BME280;47610;52.252;20.922;2022-12-16T05:44:43;99905.56;;;-5.07;100.00
61697;BME280;47610;52.252;20.922;2022-12-16T05:50:07;99915.39;;;-5.02;100.00
61697;BME280;47610;52.252;20.922;2022-12-16T05:55:32;99913.48;;;-5.01;100.00
61697;BME280;47610;52.252;20.922;2022-12-16T06:00:53;99917.13;;;-5.06;100.00
61697;BME280;47610;52.252;20.922;2022-12-16T06:06:15;99909.94;;;-5.09;100.00
61697;BME280;47610;52.252;20.922;2022-12-16T06:11:37;99920.34;;;-5.13;100.00
61697;BME280;47610;52.252;20.922;2022-12-16T06:17:00;99923.15;;;-5.17;100.00
61697;BME280;47610;52.252;20.922;2022-12-16T06:22:23;99925.36;;;-5.19;100.00
61697;BME280;47610;52.252;20.922;2022-12-16T06:27:50;99930.19;;;-5.19;100.00
61697;BME280;47610;52.252;20.922;2022-12-16T06:33:14;99927.10;;;-5.21;100.00
61697;BME280;47610;52.252;20.922;2022-12-16T06:38:36;99925.93;;;-5.19;100.00
61697;BME280;47610;52.252;20.922;2022-12-16T06:44:00;99912.11;;;-5.16;100.00
61697;BME280;47610;52.252;20.922;2022-12-16T06:49:23;99913.52;;;-5.12;100.00
61697;BME280;47610;52.252;20.922;2022-12-16T06:54:46;99917.55;;;-5.05;100.00
61697;BME280;47610;52.252;20.922;2022-12-16T07:00:10;99915.00;;;-5.02;100.00
61697;BME280;47610;52.252;20.922;2022-12-16T07:11:11;99930.83;;;-4.92;100.00
61697;BME280;47610;52.252;20.922;2022-12-16T07:16:33;99930.59;;;-4.87;100.00
61697;BME280;47610;52.252;20.922;2022-12-16T07:21:53;99935.64;;;-4.86;100.00
61697;BME280;47610;52.252;20.922;2022-12-16T07:27:15;99933.31;;;-4.84;100.00
61697;BME280;47610;52.252;20.922;2022-12-16T07:32:36;99934.39;;;-4.84;100.00
61697;BME280;47610;52.252;20.922;2022-12-16T07:37:58;99939.27;;;-4.88;100.00
61697;BME280;47610;52.252;20.922;2022-12-16T07:43:20;99925.56;;;-4.90;100.00
61697;BME280;47610;52.252;20.922;2022-12-16T07:48:42;99937.39;;;-4.91;100.00
61697;BME280;47610;52.252;20.922;2022-12-16T07:54:08;99937.26;;;-4.92;100.00
61697;BME280;47610;52.252;20.922;2022-12-16T07:59:29;99918.70;;;-4.89;100.00
61697;BME280;47610;52.252;20.922;2022-12-16T08:04:53;99914.34;;;-4.91;100.00
61697;BME280;47610;52.252;20.922;2022-12-16T08:10:16;99909.96;;;-4.91;100.00
61697;BME280;47610;52.252;20.922;2022-12-16T08:15:37;99906.39;;;-4.87;100.00
61697;BME280;47610;52.252;20.922;2022-12-16T08:20:58;99914.14;;;-4.84;100.00
61697;BME280;47610;52.252;20.922;2022-12-16T08:26:20;99908.54;;;-4.84;100.00
61697;BME280;47610;52.252;20.922;2022-12-16T08:31:40;99897.88;;;-4.82;100.00
61697;BME280;47610;52.252;20.922;2022-12-16T08:37:02;99892.45;;;-4.82;100.00
61697;BME280;47610;52.252;20.922;2022-12-16T08:42:24;99891.50;;;-4.85;100.00
61697;BME280;47610;52.252;20.922;2022-12-16T08:47:46;99894.72;;;-4.85;100.00
61697;BME280;47610;52.252;20.922;2022-12-16T08:53:07;99907.09;;;-4.84;100.00
61697;BME280;47610;52.252;20.922;2022-12-16T09:02:53;99896.79;;;-4.75;100.00
61697;BME280;47610;52.252;20.922;2022-12-16T09:08:18;99878.65;;;-4.72;100.00
61697;BME280;47610;52.252;20.922;2022-12-16T09:13:45;99871.58;;;-4.65;100.00
61697;BME280;47610;52.252;20.922;2022-12-16T09:19:08;99857.73;;;-4.61;100.00
61697;BME280;47610;52.252;20.922;2022-12-16T09:24:31;99840.84;;;-4.57;100.00
61697;BME280;47610;52.252;20.922;2022-12-16T09:29:54;99834.04;;;-4.48;100.00
61697;BME280;47610;52.252;20.922;2022-12-16T09:35:19;99826.21;;;-4.41;100.00
61697;BME280;47610;52.252;20.922;2022-12-16T09:40:43;99825.45;;;-4.34;100.00
61697;BME280;47610;52.252;20.922;2022-12-16T09:46:11;99818.54;;;-4.31;100.00
61697;BME280;47610;52.252;20.922;2022-12-16T09:51:40;99806.42;;;-4.26;100.00
61697;BME280;47610;52.252;20.922;2022-12-16T09:57:06;99807.48;;;-4.19;100.00
61697;BME280;47610;52.252;20.922;2022-12-16T10:02:27;99802.02;;;-4.13;100.00
61697;BME280;47610;52.252;20.922;2022-12-16T10:07:58;99804.92;;;-4.07;100.00
61697;BME280;47610;52.252;20.922;2022-12-16T10:13:36;99801.20;;;-3.97;100.00
61697;BME280;47610;52.252;20.922;2022-12-16T10:19:09;99800.33;;;-3.87;100.00
61697;BME280;47610;52.252;20.922;2022-12-16T10:24:44;99805.33;;;-3.80;100.00
61697;BME280;47610;52.252;20.922;2022-12-16T10:30:16;99812.17;;;-3.72;100.00
61697;BME280;47610;52.252;20.922;2022-12-16T10:35:46;99804.17;;;-3.67;100.00
61697;BME280;47610;52.252;20.922;2022-12-16T10:41:09;99796.73;;;-3.61;100.00
61697;BME280;47610;52.252;20.922;2022-12-16T10:46:35;99790.52;;;-3.54;100.00
61697;BME280;47610;52.252;20.922;2022-12-16T10:51:58;99777.88;;;-3.49;100.00
61697;BME280;47610;52.252;20.922;2022-12-16T10:57:33;99770.39;;;-3.48;100.00
61697;BME280;47610;52.252;20.922;2022-12-16T11:03:18;99770.45;;;-3.37;100.00
61697;BME280;47610;52.252;20.922;2022-12-16T11:08:47;99758.74;;;-3.24;100.00
61697;BME280;47610;52.252;20.922;2022-12-16T11:23:17;99758.02;;;-3.17;100.00
61697;BME280;47610;52.252;20.922;2022-12-16T11:28:43;99753.98;;;-3.20;100.00
61697;BME280;47610;52.252;20.922;2022-12-16T11:34:06;99755.60;;;-3.18;100.00
61697;BME280;47610;52.252;20.922;2022-12-16T11:39:34;99745.48;;;-3.17;100.00
61697;BME280;47610;52.252;20.922;2022-12-16T11:45:00;99743.48;;;-3.15;100.00
61697;BME280;47610;52.252;20.922;2022-12-16T11:50:28;99737.70;;;-3.11;100.00
61697;BME280;47610;52.252;20.922;2022-12-16T11:55:56;99729.11;;;-3.07;100.00
61697;BME280;47610;52.252;20.922;2022-12-16T12:01:22;99736.58;;;-2.99;100.00
61697;BME280;47610;52.252;20.922;2022-12-16T12:07:08;99740.23;;;-2.95;100.00
61697;BME280;47610;52.252;20.922;2022-12-16T12:12:41;99742.98;;;-2.90;100.00
61697;BME280;47610;52.252;20.922;2022-12-16T12:18:17;99740.23;;;-2.87;100.00
61697;BME280;47610;52.252;20.922;2022-12-16T12:23:54;99740.19;;;-2.78;100.00
61697;BME280;47610;52.252;20.922;2022-12-16T12:29:31;99738.47;;;-2.68;100.00
61697;BME280;47610;52.252;20.922;2022-12-16T12:35:02;99730.23;;;-2.60;100.00
61697;BME280;47610;52.252;20.922;2022-12-16T12:40:44;99731.19;;;-2.53;100.00
61697;BME280;47610;52.252;20.922;2022-12-16T12:46:16;99726.42;;;-2.49;100.00
61697;BME280;47610;52.252;20.922;2022-12-16T12:51:51;99739.94;;;-2.47;100.00
61697;BME280;47610;52.252;20.922;2022-12-16T12:57:21;99737.67;;;-2.48;100.00
61697;BME280;47610;52.252;20.922;2022-12-16T13:02:56;99740.15;;;-2.50;100.00
61697;BME280;47610;52.252;20.922;2022-12-16T13:08:57;99747.18;;;-2.58;100.00
61697;BME280;47610;52.252;20.922;2022-12-16T13:14:55;99752.66;;;-2.60;100.00
61697;BME280;47610;52.252;20.922;2022-12-16T13:20:41;99759.04;;;-2.59;100.00
61697;BME280;47610;52.252;20.922;2022-12-16T13:26:06;99774.13;;;-2.57;100.00
61697;BME280;47610;52.252;20.922;2022-12-16T13:31:28;99767.34;;;-2.57;100.00
61697;BME280;47610;52.252;20.922;2022-12-16T13:48:35;99778.85;;;-2.77;100.00
61697;BME280;47610;52.252;20.922;2022-12-16T13:53:59;99772.36;;;-2.88;100.00
61697;BME280;47610;52.252;20.922;2022-12-16T13:59:27;99762.03;;;-2.92;100.00
61697;BME280;47610;52.252;20.922;2022-12-16T14:04:53;99778.10;;;-2.95;100.00
61697;BME280;47610;52.252;20.922;2022-12-16T14:10:28;99788.58;;;-2.99;100.00
61697;BME280;47610;52.252;20.922;2022-12-16T14:16:02;99799.94;;;-3.05;100.00
61697;BME280;47610;52.252;20.922;2022-12-16T14:21:39;99799.40;;;-3.05;100.00
61697;BME280;47610;52.252;20.922;2022-12-16T14:27:15;99786.30;;;-3.08;100.00
61697;BME280;47610;52.252;20.922;2022-12-16T14:32:38;99785.67;;;-3.13;100.00
61697;BME280;47610;52.252;20.922;2022-12-16T14:38:16;99775.76;;;-3.17;100.00
61697;BME280;47610;52.252;20.922;2022-12-16T14:43:43;99780.42;;;-3.19;100.00
61697;BME280;47610;52.252;20.922;2022-12-16T14:49:19;99801.07;;;-3.22;100.00
61697;BME280;47610;52.252;20.922;2022-12-16T14:54:45;99814.11;;;-3.24;100.00
61697;BME280;47610;52.252;20.922;2022-12-16T15:00:20;99824.84;;;-3.23;100.00
61697;BME280;47610;52.252;20.922;2022-12-16T15:05:44;99820.16;;;-3.21;100.00
61697;BME280;47610;52.252;20.922;2022-12-16T15:11:09;99820.60;;;-3.19;100.00
61697;BME280;47610;52.252;20.922;2022-12-16T15:16:34;99831.19;;;-3.14;100.00
61697;BME280;47610;52.252;20.922;2022-12-16T15:22:01;99848.85;;;-3.10;100.00
61697;BME280;47610;52.252;20.922;2022-12-16T15:27:32;99863.45;;;-3.02;100.00
61697;BME280;47610;52.252;20.922;2022-12-16T15:32:54;99847.43;;;-2.95;100.00
61697;BME280;47610;52.252;20.922;2022-12-16T15:38:25;99860.09;;;-2.89;100.00
61697;BME280;47610;52.252;20.922;2022-12-16T15:43:49;99865.40;;;-2.87;100.00
61697;BME280;47610;52.252;20.922;2022-12-16T15:49:18;99866.70;;;-2.83;100.00
61697;BME280;47610;52.252;20.922;2022-12-16T16:10:17;99876.41;;;-2.79;100.00
61697;BME280;47610;52.252;20.922;2022-12-16T16:15:40;99874.08;;;-2.83;100.00
61697;BME280;47610;52.252;20.922;2022-12-16T16:21:02;99876.79;;;-2.89;100.00
61697;BME280;47610;52.252;20.922;2022-12-16T16:26:28;99871.41;;;-2.93;100.00
61697;BME280;47610;52.252;20.922;2022-12-16T16:31:51;99877.36;;;-2.99;100.00
61697;BME280;47610;52.252;20.922;2022-12-16T16:37:15;99877.67;;;-3.01;100.00
61697;BME280;47610;52.252;20.922;2022-12-16T16:42:36;99881.10;;;-3.04;100.00
61697;BME280;47610;52.252;20.922;2022-12-16T16:48:08;99898.20;;;-3.08;100.00
61697;BME280;47610;52.252;20.922;2022-12-16T16:53:31;99910.50;;;-3.13;100.00
61697;BME280;47610;52.252;20.922;2022-12-16T16:58:54;99911.02;;;-3.17;100.00
61697;BME280;47610;52.252;20.922;2022-12-16T17:04:16;99914.92;;;-3.21;100.00
61697;BME280;47610;52.252;20.922;2022-12-16T17:09:39;99933.67;;;-3.22;100.00
61697;BME280;47610;52.252;20.922;2022-12-16T17:15:01;99941.27;;;-3.21;100.00
61697;BME280;47610;52.252;20.922;2022-12-16T17:20:23;99946.15;;;-3.21;100.00
61697;BME280;47610;52.252;20.922;2022-12-16T17:25:46;99940.55;;;-3.24;100.00
61697;BME280;47610;52.252;20.922;2022-12-16T17:31:08;99941.53;;;-3.24;100.00
61697;BME280;47610;52.252;20.922;2022-12-16T17:36:31;99946.39;;;-3.29;100.00
61697;BME280;47610;52.252;20.922;2022-12-16T17:41:54;99952.25;;;-3.37;100.00
61697;BME280;47610;52.252;20.922;2022-12-16T17:47:17;99970.95;;;-3.44;100.00
61697;BME280;47610;52.252;20.922;2022-12-16T17:52:39;99965.97;;;-3.50;100.00
61697;BME280;47610;52.252;20.922;2022-12-16T17:58:03;99968.92;;;-3.54;100.00
61697;BME280;47610;52.252;20.922;2022-12-16T18:03:25;99977.13;;;-3.52;100.00
61697;BME280;47610;52.252;20.922;2022-12-16T18:08:47;99983.48;;;-3.45;100.00
61697;BME280;47610;52.252;20.922;2022-12-16T18:14:09;99983.92;;;-3.46;100.00
61697;BME280;47610;52.252;20.922;2022-12-16T18:19:30;100000.33;;;-3.45;100.00
61697;BME280;47610;52.252;20.922;2022-12-16T18:29:22;100000.73;;;-3.33;100.00
61697;BME280;47610;52.252;20.922;2022-12-16T18:34:43;99998.40;;;-3.30;100.00
61697;BME280;47610;52.252;20.922;2022-12-16T18:40:07;100006.67;;;-3.29;100.00
61697;BME280;47610;52.252;20.922;2022-12-16T18:45:29;100020.77;;;-3.30;100.00
61697;BME280;47610;52.252;20.922;2022-12-16T18:50:58;100024.61;;;-3.29;100.00
61697;BME280;47610;52.252;20.922;2022-12-16T18:56:19;100020.80;;;-3.29;100.00
61697;BME280;47610;52.252;20.922;2022-12-16T19:01:40;100032.33;;;-3.27;100.00
61697;BME280;47610;52.252;20.922;2022-12-16T19:07:01;100038.19;;;-3.25;100.00
61697;BME280;47610;52.252;20.922;2022-12-16T19:12:22;100045.64;;;-3.22;100.00
61697;BME280;47610;52.252;20.922;2022-12-16T19:17:46;100059.66;;;-3.18;100.00
61697;BME280;47610;52.252;20.922;2022-12-16T19:23:06;100072.71;;;-3.13;100.00
61697;BME280;47610;52.252;20.922;2022-12-16T19:28:28;100081.89;;;-3.11;100.00
61697;BME280;47610;52.252;20.922;2022-12-16T19:33:53;100078.25;;;-3.10;100.00
61697;BME280;47610;52.252;20.922;2022-12-16T19:39:16;100078.95;;;-3.10;100.00
61697;BME280;47610;52.252;20.922;2022-12-16T19:44:37;100086.65;;;-3.11;100.00
61697;BME280;47610;52.252;20.922;2022-12-16T19:49:58;100080.88;;;-3.12;100.00
61697;BME280;47610;52.252;20.922;2022-12-16T19:55:19;100088.39;;;-3.16;100.00
61697;BME280;47610;52.252;20.922;2022-12-16T20:00:40;100112.08;;;-3.16;100.00
61697;BME280;47610;52.252;20.922;2022-12-16T20:06:06;100120.91;;;-3.12;100.00
61697;BME280;47610;52.252;20.922;2022-12-16T20:11:27;100112.30;;;-3.10;100.00
61697;BME280;47610;52.252;20.922;2022-12-16T20:20:13;100135.45;;;-3.05;100.00
61697;BME280;47610;52.252;20.922;2022-12-16T20:25:35;100144.04;;;-3.05;100.00
61697;BME280;47610;52.252;20.922;2022-12-16T20:31:01;100134.84;;;-3.00;100.00
61697;BME280;47610;52.252;20.922;2022-12-16T20:36:24;100121.30;;;-3.00;100.00
61697;BME280;47610;52.252;20.922;2022-12-16T20:41:47;100121.24;;;-3.02;100.00
61697;BME280;47610;52.252;20.922;2022-12-16T20:47:11;100135.06;;;-3.03;100.00
61697;BME280;47610;52.252;20.922;2022-12-16T20:52:33;100142.98;;;-3.07;100.00
61697;BME280;47610;52.252;20.922;2022-12-16T20:57:56;100138.63;;;-3.09;100.00
61697;BME280;47610;52.252;20.922;2022-12-16T21:03:18;100137.45;;;-3.14;100.00
61697;BME280;47610;52.252;20.922;2022-12-16T21:08:40;100140.72;;;-3.17;100.00
61697;BME280;47610;52.252;20.922;2022-12-16T21:14:03;100143.04;;;-3.17;100.00
61697;BME280;47610;52.252;20.922;2022-12-16T21:19:26;100150.49;;;-3.14;100.00
61697;BME280;47610;52.252;20.922;2022-12-16T21:24:49;100157.63;;;-3.09;100.00
61697;BME280;47610;52.252;20.922;2022-12-16T21:30:15;100156.59;;;-3.08;100.00
61697;BME280;47610;52.252;20.922;2022-12-16T21:35:41;100158.02;;;-3.09;100.00
61697;BME280;47610;52.252;20.922;2022-12-16T21:41:05;100157.21;;;-3.09;100.00
61697;BME280;47610;52.252;20.922;2022-12-16T21:46:29;100166.30;;;-3.08;100.00
61697;BME280;47610;52.252;20.922;2022-12-16T21:51:52;100168.33;;;-3.08;100.00
61697;BME280;47610;52.252;20.922;2022-12-16T21:57:16;100187.75;;;-3.09;100.00
61697;BME280;47610;52.252;20.922;2022-12-16T22:02:38;100202.39;;;-3.11;100.00
61697;BME280;47610;52.252;20.922;2022-12-16T22:08:06;100199.98;;;-3.10;100.00
61697;BME280;47610;52.252;20.922;2022-12-16T22:13:33;100200.17;;;-3.10;100.00
61697;BME280;47610;52.252;20.922;2022-12-16T22:18:56;100197.36;;;-3.08;100.00
61697;BME280;47610;52.252;20.922;2022-12-16T22:24:19;100205.79;;;-3.07;100.00
61697;BME280;47610;52.252;20.922;2022-12-16T22:29:40;100225.40;;;-3.01;100.00
61697;BME280;47610;52.252;20.922;2022-12-16T22:38:59;100246.42;;;-2.98;100.00
61697;BME280;47610;52.252;20.922;2022-12-16T22:44:22;100247.38;;;-3.00;100.00
61697;BME280;47610;52.252;20.922;2022-12-16T22:49:44;100248.02;;;-2.99;100.00
61697;BME280;47610;52.252;20.922;2022-12-16T22:55:09;100259.48;;;-3.03;100.00
61697;BME280;47610;52.252;20.922;2022-12-16T23:00:31;100268.14;;;-3.02;100.00
61697;BME280;47610;52.252;20.922;2022-12-16T23:05:54;100275.42;;;-2.96;100.00
61697;BME280;47610;52.252;20.922;2022-12-16T23:11:22;100269.81;;;-2.97;100.00
61697;BME280;47610;52.252;20.922;2022-12-16T23:16:46;100277.29;;;-2.99;100.00
61697;BME280;47610;52.252;20.922;2022-12-16T23:22:08;100274.75;;;-3.01;100.00
61697;BME280;47610;52.252;20.922;2022-12-16T23:27:31;100274.89;;;-2.99;100.00
61697;BME280;47610;52.252;20.922;2022-12-16T23:33:01;100274.10;;;-2.97;100.00
61697;BME280;47610;52.252;20.922;2022-12-16T23:38:25;100284.10;;;-2.95;100.00
61697;BME280;47610;52.252;20.922;2022-12-16T23:43:49;100285.19;;;-2.97;100.00
61697;BME280;47610;52.252;20.922;2022-12-16T23:49:12;100296.98;;;-2.96;100.00
61697;BME280;47610;52.252;20.922;2022-12-16T23:54:34;100284.45;;;-2.97;100.00
61697;BME280;47610;52.252;20.922;2022-12-16T23:59:57;100288.78;;;-2.95;100.00
